createdAt,value
2017-08-20T00:00:45.185Z,73.7
2017-08-20T00:01:44.254Z,73.5
2017-08-20T00:02:43.818Z,73.4
2017-08-20T00:03:43.002Z,73.4
2017-08-20T00:04:42.442Z,73.4
2017-08-20T00:05:41.263Z,73.6
2017-08-20T00:06:40.713Z,74.1
2017-08-20T00:07:40.279Z,73.8
2017-08-20T00:08:39.224Z,73.6
2017-08-20T00:09:38.670Z,73.5
2017-08-20T00:10:37.611Z,73.9
2017-08-20T00:11:37.293Z,73.9
2017-08-20T00:12:36.466Z,73.4
2017-08-20T00:13:35.544Z,74.3
2017-08-20T00:14:35.214Z,74.1
2017-08-20T00:15:34.545Z,73.8
2017-08-20T00:16:33.730Z,73.7
2017-08-20T00:17:32.665Z,73.7
2017-08-20T00:18:32.109Z,73.9
2017-08-20T00:19:31.562Z,73.5
2017-08-20T00:20:30.627Z,73.5
2017-08-20T00:21:29.709Z,73.5
2017-08-20T00:22:29.161Z,73.1
2017-08-20T00:23:28.715Z,73.1
2017-08-20T00:24:27.784Z,72.9
2017-08-20T00:25:26.974Z,72.8
2017-08-20T00:26:26.419Z,73.4
2017-08-20T00:27:25.598Z,73.3
2017-08-20T00:28:25.153Z,72.9
2017-08-20T00:28:55.522Z,72.9
2017-08-20T00:29:26.008Z,73.4
2017-08-20T00:30:23.553Z,73.2
2017-08-20T00:32:22.131Z,73.8
2017-08-20T00:33:21.077Z,73.8
2017-08-20T00:34:20.642Z,74.1
2017-08-20T00:35:19.815Z,74.6
2017-08-20T00:36:19.377Z,74.1
2017-08-20T00:37:18.555Z,74.2
2017-08-20T00:38:17.506Z,74.3
2017-08-20T00:38:47.993Z,74.3
2017-08-20T00:39:18.481Z,74.7
2017-08-20T00:39:48.973Z,74.7
2017-08-20T00:40:19.350Z,74.7
2017-08-20T00:40:49.834Z,74.7
2017-08-20T00:42:14.679Z,74.8
2017-08-20T00:43:13.863Z,75.3
2017-08-20T00:44:13.547Z,75.9
2017-08-20T00:45:12.604Z,75.6
2017-08-20T00:46:11.798Z,75.4
2017-08-20T00:47:10.974Z,75.1
2017-08-20T00:48:10.543Z,76.3
2017-08-20T00:49:09.717Z,76.5
2017-08-20T00:50:08.900Z,76.9
2017-08-20T00:52:07.488Z,75.2
2017-08-20T00:53:06.551Z,76.2
2017-08-20T00:54:05.991Z,75.8
2017-08-20T00:55:05.051Z,75.6
2017-08-20T00:56:04.617Z,75.9
2017-08-20T00:57:03.826Z,75.9
2017-08-20T00:58:02.896Z,77
2017-08-20T00:59:02.573Z,77
2017-08-20T01:00:01.754Z,76.8
2017-08-20T01:01:00.699Z,76.8
2017-08-20T01:02:59.274Z,76
2017-08-20T01:03:58.723Z,76.4
2017-08-20T01:04:57.902Z,77.8
2017-08-20T01:05:57.469Z,77.4
2017-08-20T01:06:56.650Z,77.7
2017-08-20T01:07:55.824Z,77.5
2017-08-20T01:08:54.765Z,77.7
2017-08-20T01:10:53.715Z,77.7
2017-08-20T01:11:52.779Z,77.7
2017-08-20T01:12:52.226Z,77.4
2017-08-20T01:13:51.278Z,77.4
2017-08-20T01:14:50.609Z,77.6
2017-08-20T01:15:49.860Z,77
2017-08-20T01:16:49.045Z,77.3
2017-08-20T01:17:48.601Z,77.3
2017-08-20T01:18:47.781Z,77.4
2017-08-20T01:19:46.853Z,77.6
2017-08-20T01:20:17.335Z,77.6
2017-08-20T01:20:47.823Z,77
2017-08-20T01:21:18.343Z,77
2017-08-20T01:22:44.574Z,77.7
2017-08-20T01:23:43.759Z,77.3
2017-08-20T01:24:43.443Z,76.9
2017-08-20T01:25:42.623Z,77.4
2017-08-20T01:26:41.804Z,78
2017-08-20T01:27:40.859Z,77.9
2017-08-20T01:28:40.414Z,78.4
2017-08-20T01:29:39.357Z,77.9
2017-08-20T01:31:38.299Z,77.9
2017-08-20T01:32:37.482Z,78
2017-08-20T01:33:36.548Z,78.5
2017-08-20T01:36:34.382Z,78.5
2017-08-20T01:37:33.443Z,78.5
2017-08-20T01:38:33.135Z,78.6
2017-08-20T01:40:31.191Z,78.8
2017-08-20T01:41:30.640Z,78.8
2017-08-20T01:42:30.204Z,78.5
2017-08-20T01:43:29.379Z,78.2
2017-08-20T01:44:28.556Z,78.4
2017-08-20T01:45:27.499Z,78.7
2017-08-20T01:46:27.178Z,78.7
2017-08-20T01:47:26.246Z,79.1
2017-08-20T01:48:25.308Z,78.7
2017-08-20T01:49:24.994Z,79
2017-08-20T01:50:23.932Z,79.2
2017-08-20T01:51:23.498Z,78.7
2017-08-20T01:52:22.557Z,78.5
2017-08-20T01:53:21.616Z,79
2017-08-20T01:54:21.291Z,79.1
2017-08-20T01:55:20.475Z,79.8
2017-08-20T01:56:19.649Z,79.4
2017-08-20T01:57:18.828Z,79.3
2017-08-20T01:58:18.000Z,79.6
2017-08-20T02:00:16.574Z,79.5
2017-08-20T02:01:15.754Z,78.8
2017-08-20T02:02:14.933Z,78.7
2017-08-20T02:03:14.606Z,79
2017-08-20T02:04:13.778Z,79.1
2017-08-20T02:05:12.838Z,78.8
2017-08-20T02:06:12.010Z,78.9
2017-08-20T02:06:42.264Z,78.9
2017-08-20T02:07:12.749Z,80.2
2017-08-20T02:08:10.805Z,81.8
2017-08-20T02:09:09.628Z,80.6
2017-08-20T02:10:09.202Z,80.3
2017-08-20T02:11:08.390Z,80.5
2017-08-20T02:12:07.456Z,80.5
2017-08-20T02:13:07.142Z,80.1
2017-08-20T02:14:06.317Z,80
2017-08-20T02:15:05.284Z,80.2
2017-08-20T02:16:04.974Z,80.2
2017-08-20T02:17:04.042Z,79.8
2017-08-20T02:18:03.215Z,80.9
2017-08-20T02:19:02.393Z,80.3
2017-08-20T02:20:01.449Z,81.1
2017-08-20T02:21:01.133Z,80.8
2017-08-20T02:22:00.194Z,80.2
2017-08-20T02:22:59.763Z,80.4
2017-08-20T02:23:58.764Z,80
2017-08-20T02:25:57.099Z,80.5
2017-08-20T02:26:56.788Z,80.1
2017-08-20T02:27:55.963Z,80
2017-08-20T02:28:55.022Z,79.9
2017-08-20T02:29:54.196Z,81.1
2017-08-20T02:30:53.371Z,80.7
2017-08-20T02:31:53.053Z,80.2
2017-08-20T02:32:52.115Z,80.6
2017-08-20T02:33:51.176Z,80.5
2017-08-20T02:34:50.858Z,80.3
2017-08-20T02:36:48.915Z,80.2
2017-08-20T02:37:48.587Z,80.8
2017-08-20T02:38:47.773Z,80.5
2017-08-20T02:39:47.527Z,80.1
2017-08-20T02:41:45.472Z,79.8
2017-08-20T02:42:44.419Z,80.1
2017-08-20T02:43:43.858Z,79.7
2017-08-20T02:44:43.033Z,79.8
2017-08-20T02:45:42.596Z,80.4
2017-08-20T02:46:41.606Z,80.1
2017-08-20T02:51:38.111Z,79.9
2017-08-20T02:52:37.284Z,79.9
2017-08-20T02:53:36.468Z,79.6
2017-08-20T02:54:35.646Z,79.5
2017-08-20T02:55:34.847Z,79.7
2017-08-20T02:57:33.179Z,79.5
2017-08-20T02:58:32.873Z,79.8
2017-08-20T02:59:31.933Z,80
2017-08-20T03:00:31.116Z,80.1
2017-08-20T03:01:30.673Z,79.8
2017-08-20T03:03:29.130Z,79.3
2017-08-20T03:04:28.187Z,80.1
2017-08-20T03:05:27.749Z,79.7
2017-08-20T03:06:26.811Z,79.9
2017-08-20T03:07:25.979Z,80.1
2017-08-20T03:08:25.418Z,80.1
2017-08-20T03:08:55.795Z,80.1
2017-08-20T03:09:26.167Z,80.2
2017-08-20T03:09:56.575Z,80.2
2017-08-20T03:12:22.203Z,80.4
2017-08-20T03:13:21.766Z,80.4
2017-08-20T03:15:20.334Z,79.5
2017-08-20T03:16:19.510Z,79.6
2017-08-20T03:17:18.684Z,79.6
2017-08-20T03:18:17.889Z,79.4
2017-08-20T03:19:17.453Z,79.3
2017-08-20T03:21:15.549Z,79.6
2017-08-20T03:22:15.110Z,79.9
2017-08-20T03:24:13.678Z,79.8
2017-08-20T03:25:12.853Z,80
2017-08-20T03:26:12.035Z,79.9
2017-08-20T03:27:11.213Z,80
2017-08-20T03:28:10.776Z,80.2
2017-08-20T03:30:08.847Z,80
2017-08-20T03:31:08.427Z,79.7
2017-08-20T03:32:07.488Z,80.4
2017-08-20T03:33:06.820Z,80.3
2017-08-20T03:36:04.779Z,80.4
2017-08-20T03:37:03.731Z,81.3
2017-08-20T03:38:03.297Z,81.3
2017-08-20T03:38:33.806Z,81.3
2017-08-20T03:39:04.296Z,82
2017-08-20T03:39:34.786Z,82
2017-08-20T03:41:01.136Z,82.2
2017-08-20T03:42:00.089Z,81.8
2017-08-20T03:42:59.158Z,82
2017-08-20T03:43:58.719Z,82.5
2017-08-20T03:45:57.044Z,82.4
2017-08-20T03:46:56.223Z,82.1
2017-08-20T03:47:55.900Z,81.8
2017-08-20T03:48:54.963Z,82.2
2017-08-20T03:49:54.139Z,82.2
2017-08-20T03:50:53.194Z,83.1
2017-08-20T03:51:52.870Z,82.4
2017-08-20T03:52:51.802Z,82.6
2017-08-20T03:53:51.384Z,82.3
2017-08-20T03:54:51.131Z,82.9
2017-08-20T03:55:49.815Z,83.1
2017-08-20T03:56:49.000Z,83.7
2017-08-20T03:57:48.445Z,83.9
2017-08-20T03:59:46.504Z,83.6
2017-08-20T04:00:46.185Z,83.3
2017-08-20T04:01:45.371Z,83.4
2017-08-20T04:02:44.550Z,84
2017-08-20T04:03:43.608Z,83.9
2017-08-20T04:06:41.447Z,83.8
2017-08-20T04:07:40.625Z,83.5
2017-08-20T04:08:40.070Z,84.2
2017-08-20T04:09:39.130Z,83.8
2017-08-20T04:10:38.308Z,83.7
2017-08-20T04:11:37.748Z,84
2017-08-20T04:12:36.806Z,84.2
2017-08-20T04:13:35.979Z,83.7
2017-08-20T04:14:35.541Z,84
2017-08-20T04:16:34.114Z,84.1
2017-08-20T04:17:33.441Z,84.4
2017-08-20T04:18:32.387Z,84.5
2017-08-20T04:19:31.437Z,84.5
2017-08-20T04:20:31.008Z,84.4
2017-08-20T04:21:30.330Z,85
2017-08-20T04:22:29.270Z,84.6
2017-08-20T04:23:28.718Z,84.4
2017-08-20T04:24:27.783Z,84.2
2017-08-20T04:26:26.430Z,84.3
2017-08-20T04:27:25.604Z,84.6
2017-08-20T04:32:21.832Z,84.5
2017-08-20T04:33:21.006Z,84.6
2017-08-20T04:34:20.223Z,84.9
2017-08-20T04:35:19.927Z,85.3
2017-08-20T04:36:19.095Z,85
2017-08-20T04:37:18.268Z,84.8
2017-08-20T04:38:17.442Z,84.6
2017-08-20T04:39:16.509Z,84.8
2017-08-20T04:40:15.685Z,85.2
2017-08-20T04:41:15.251Z,85.2
2017-08-20T04:42:14.427Z,84.9
2017-08-20T04:43:13.603Z,84.8
2017-08-20T04:45:12.171Z,85.1
2017-08-20T04:46:11.344Z,84.8
2017-08-20T04:47:10.407Z,84.7
2017-08-20T04:48:09.965Z,84.9
2017-08-20T04:49:08.904Z,85
2017-08-20T04:51:07.481Z,84.8
2017-08-20T04:53:06.049Z,84.5
2017-08-20T04:54:05.233Z,85
2017-08-20T04:55:04.675Z,85.1
2017-08-20T04:56:03.731Z,85.3
2017-08-20T04:57:02.795Z,85.2
2017-08-20T04:59:01.621Z,84.9
2017-08-20T05:00:01.063Z,85.1
2017-08-20T05:01:00.244Z,85.4
2017-08-20T05:01:59.306Z,85.8
2017-08-20T05:02:58.367Z,85.2
2017-08-20T05:03:58.047Z,85
2017-08-20T05:04:57.113Z,85.1
2017-08-20T05:05:56.308Z,84.9
2017-08-20T05:06:55.495Z,84.7
2017-08-20T05:07:54.559Z,84.7
2017-08-20T05:09:53.507Z,84.9
2017-08-20T05:10:52.686Z,84.3
2017-08-20T05:12:51.254Z,84.3
2017-08-20T05:13:50.323Z,84.4
2017-08-20T05:14:49.379Z,84.2
2017-08-20T05:15:48.559Z,84.2
2017-08-20T05:16:48.238Z,83.8
2017-08-20T05:18:46.684Z,84
2017-08-20T05:20:44.764Z,83.9
2017-08-20T05:22:43.211Z,83.6
2017-08-20T05:23:42.766Z,83.5
2017-08-20T05:24:41.841Z,83.8
2017-08-20T05:25:41.049Z,83.5
2017-08-20T05:26:40.380Z,83.1
2017-08-20T05:27:39.446Z,83.1
2017-08-20T05:28:39.131Z,82.9
2017-08-20T05:29:38.189Z,82.9
2017-08-20T05:31:36.521Z,82.6
2017-08-20T05:32:35.966Z,82.3
2017-08-20T05:33:34.906Z,82.1
2017-08-20T05:34:34.588Z,82
2017-08-20T05:35:33.770Z,82.3
2017-08-20T05:36:32.942Z,82.3
2017-08-20T05:37:32.388Z,82.5
2017-08-20T05:38:31.449Z,82
2017-08-20T05:39:30.771Z,81.8
2017-08-20T05:40:30.092Z,81.8
2017-08-20T05:41:29.274Z,81.7
2017-08-20T05:42:28.340Z,81.7
2017-08-20T05:43:27.519Z,81.8
2017-08-20T05:44:26.697Z,81.4
2017-08-20T05:45:25.882Z,81.9
2017-08-20T05:46:25.562Z,81.4
2017-08-20T05:47:24.624Z,81.4
2017-08-20T05:48:23.800Z,80.8
2017-08-20T05:49:22.986Z,80.8
2017-08-20T05:50:22.159Z,80.8
2017-08-20T05:51:21.721Z,81.2
2017-08-20T05:52:20.663Z,80.9
2017-08-20T05:53:19.846Z,80.8
2017-08-20T05:54:19.533Z,80.9
2017-08-20T05:55:18.717Z,80.3
2017-08-20T05:56:17.653Z,80.3
2017-08-20T05:57:16.833Z,79.9
2017-08-20T05:58:16.284Z,79.9
2017-08-20T05:59:15.455Z,79.9
2017-08-20T06:00:15.020Z,79.3
2017-08-20T06:01:14.196Z,79.7
2017-08-20T06:02:13.141Z,80
2017-08-20T06:03:12.318Z,79.7
2017-08-20T06:04:11.995Z,80.4
2017-08-20T06:05:10.944Z,79.4
2017-08-20T06:06:10.127Z,79.5
2017-08-20T06:07:09.302Z,79.6
2017-08-20T06:08:08.992Z,79.8
2017-08-20T06:09:08.048Z,79.6
2017-08-20T06:10:07.495Z,79.3
2017-08-20T06:11:06.557Z,78.8
2017-08-20T06:12:05.624Z,79.1
2017-08-20T06:13:05.188Z,78.2
2017-08-20T06:14:04.252Z,78.5
2017-08-20T06:15:03.317Z,78.9
2017-08-20T06:16:02.997Z,78.7
2017-08-20T06:17:02.668Z,78.3
2017-08-20T06:18:01.342Z,78
2017-08-20T06:19:00.422Z,77.9
2017-08-20T06:19:59.493Z,77.9
2017-08-20T06:20:59.169Z,77.9
2017-08-20T06:21:58.358Z,78
2017-08-20T06:22:57.303Z,78.3
2017-08-20T06:23:56.990Z,78.1
2017-08-20T06:24:56.204Z,77.9
2017-08-20T06:25:55.269Z,78.4
2017-08-20T06:26:54.450Z,78.2
2017-08-20T06:27:53.627Z,77.8
2017-08-20T06:28:53.328Z,78.1
2017-08-20T06:29:52.387Z,77.7
2017-08-20T06:30:51.567Z,77.4
2017-08-20T06:31:50.752Z,77.4
2017-08-20T06:32:50.088Z,77.5
2017-08-20T06:33:49.270Z,77.1
2017-08-20T06:34:48.453Z,77
2017-08-20T06:35:47.629Z,77.3
2017-08-20T06:37:46.207Z,77.5
2017-08-20T06:38:45.387Z,77.9
2017-08-20T06:40:44.342Z,76.8
2017-08-20T06:41:43.176Z,76.7
2017-08-20T06:42:42.748Z,76.4
2017-08-20T06:43:41.839Z,76.2
2017-08-20T06:44:41.046Z,75.5
2017-08-20T06:47:38.771Z,75.2
2017-08-20T06:48:38.332Z,74.4
2017-08-20T06:49:37.273Z,75.6
2017-08-20T06:50:36.837Z,74.2
2017-08-20T06:51:35.891Z,74.4
2017-08-20T06:52:34.951Z,74.7
2017-08-20T06:53:34.532Z,74.5
2017-08-20T06:54:33.721Z,74.7
2017-08-20T06:55:32.896Z,74.7
2017-08-20T06:56:31.976Z,74.1
2017-08-20T06:57:31.688Z,73.1
2017-08-20T06:58:30.751Z,73.7
2017-08-20T06:59:30.190Z,74.1
2017-08-20T07:00:29.377Z,74.2
2017-08-20T07:01:28.557Z,74.8
2017-08-20T07:02:27.727Z,75.2
2017-08-20T07:03:26.907Z,75.2
2017-08-20T07:04:26.592Z,74.9
2017-08-20T07:06:25.056Z,74.1
2017-08-20T07:07:24.238Z,73.5
2017-08-20T07:09:22.574Z,73.8
2017-08-20T07:10:22.140Z,73.8
2017-08-20T07:11:21.320Z,74.5
2017-08-20T07:12:20.504Z,74.4
2017-08-20T07:13:19.675Z,74.4
2017-08-20T07:14:18.872Z,74.2
2017-08-20T07:16:17.439Z,74.7
2017-08-20T07:17:16.617Z,73.2
2017-08-20T07:18:16.063Z,73.1
2017-08-20T07:19:15.275Z,73.2
2017-08-20T07:20:14.454Z,73.7
2017-08-20T07:21:14.139Z,73.9
2017-08-20T07:22:13.316Z,72.5
2017-08-20T07:23:12.386Z,72.7
2017-08-20T07:24:11.573Z,72.9
2017-08-20T07:25:11.141Z,72.9
2017-08-20T07:26:10.189Z,72.9
2017-08-20T07:27:09.368Z,72.5
2017-08-20T07:28:08.928Z,72.2
2017-08-20T07:29:07.874Z,71.6
2017-08-20T07:30:07.454Z,71.9
2017-08-20T07:31:06.779Z,72.3
2017-08-20T07:32:05.873Z,71.6
2017-08-20T07:33:05.197Z,71.8
2017-08-20T07:34:04.265Z,71.3
2017-08-20T07:35:03.708Z,71
2017-08-20T07:36:02.886Z,71.2
2017-08-20T07:37:02.571Z,70.3
2017-08-20T07:38:01.626Z,70.9
2017-08-20T07:39:00.817Z,70
2017-08-20T07:39:59.991Z,70.5
2017-08-20T07:41:58.560Z,69.3
2017-08-20T07:42:58.247Z,70.3
2017-08-20T07:43:57.308Z,69.9
2017-08-20T07:44:56.492Z,68.9
2017-08-20T07:45:56.067Z,68.1
2017-08-20T07:46:55.128Z,67.3
2017-08-20T07:47:54.304Z,67.8
2017-08-20T07:48:53.365Z,67.7
2017-08-20T07:49:53.109Z,67.6
2017-08-20T07:50:52.284Z,67.6
2017-08-20T07:51:51.347Z,67.2
2017-08-20T07:53:49.926Z,67.8
2017-08-20T07:54:49.487Z,67.5
2017-08-20T07:55:48.545Z,67.4
2017-08-20T07:56:48.112Z,67.7
2017-08-20T07:57:47.166Z,67.9
2017-08-20T07:58:46.344Z,68.9
2017-08-20T07:59:45.668Z,67.2
2017-08-20T08:00:45.232Z,64.9
2017-08-20T08:01:44.291Z,65
2017-08-20T08:02:43.985Z,64.1
2017-08-20T08:03:43.044Z,64
2017-08-20T08:04:42.143Z,64.9
2017-08-20T08:05:41.586Z,64.3
2017-08-20T08:07:40.423Z,65.1
2017-08-20T08:08:39.374Z,65.8
2017-08-20T08:09:39.056Z,61.9
2017-08-20T08:10:37.994Z,63.6
2017-08-20T08:11:37.445Z,60.9
2017-08-20T08:13:36.025Z,61.8
2017-08-20T08:15:34.470Z,61.8
2017-08-20T08:16:34.159Z,63
2017-08-20T08:17:33.485Z,60.5
2017-08-20T08:18:32.666Z,60.6
2017-08-20T08:20:30.875Z,60.3
2017-08-20T08:21:30.322Z,59.5
2017-08-20T08:22:00.812Z,59.5
2017-08-20T08:22:31.191Z,60.3
2017-08-20T08:23:01.691Z,60.3
2017-08-20T08:24:28.556Z,61.3
2017-08-20T08:25:27.734Z,61.2
2017-08-20T08:26:26.795Z,62.4
2017-08-20T08:27:26.363Z,62.2
2017-08-20T08:28:25.426Z,60.3
2017-08-20T08:29:25.112Z,60.8
2017-08-20T08:30:24.298Z,60.5
2017-08-20T08:31:23.491Z,60.8
2017-08-20T08:32:22.668Z,60.2
2017-08-20T08:34:21.383Z,62.2
2017-08-20T08:35:20.569Z,61.2
2017-08-20T08:36:20.031Z,62.8
2017-08-20T08:37:19.589Z,62.1
2017-08-20T08:38:18.919Z,60
2017-08-20T08:39:18.099Z,60.5
2017-08-20T08:40:17.275Z,62
2017-08-20T08:40:47.766Z,62
2017-08-20T08:42:16.142Z,60.7
2017-08-20T08:43:15.316Z,59.5
2017-08-20T08:45:13.884Z,59.9
2017-08-20T08:46:13.450Z,61
2017-08-20T08:47:12.505Z,61.8
2017-08-20T08:48:12.067Z,59.4
2017-08-20T08:49:11.244Z,58.9
2017-08-20T08:50:10.416Z,58.9
2017-08-20T08:51:09.597Z,58.9
2017-08-20T08:52:08.931Z,58.6
2017-08-20T08:53:08.611Z,59.6
2017-08-20T08:54:07.789Z,59.4
2017-08-20T08:55:06.848Z,59.4
2017-08-20T08:56:06.413Z,60.4
2017-08-20T08:57:05.365Z,60.5
2017-08-20T08:58:04.926Z,60
2017-08-20T08:59:04.497Z,61.2
2017-08-20T09:00:03.599Z,61
2017-08-20T09:01:03.093Z,59.3
2017-08-20T09:02:02.273Z,60.6
2017-08-20T09:03:01.452Z,57
2017-08-20T09:04:01.133Z,56.9
2017-08-20T09:05:00.197Z,57.4
2017-08-20T09:05:59.637Z,57.9
2017-08-20T09:06:58.700Z,57.9
2017-08-20T09:07:58.253Z,58.7
2017-08-20T09:08:57.429Z,59
2017-08-20T09:09:57.103Z,59.8
2017-08-20T09:10:56.280Z,57.9
2017-08-20T09:11:55.349Z,57.3
2017-08-20T09:12:55.043Z,56.2
2017-08-20T09:13:54.232Z,57.3
2017-08-20T09:14:53.414Z,58.2
2017-08-20T09:15:53.099Z,57.7
2017-08-20T09:16:52.163Z,58.4
2017-08-20T09:17:51.607Z,59.4
2017-08-20T09:18:50.681Z,57.5
2017-08-20T09:19:50.245Z,56.9
2017-08-20T09:20:49.312Z,57.6
2017-08-20T09:21:48.994Z,57.7
2017-08-20T09:22:48.057Z,58.9
2017-08-20T09:23:47.623Z,59.3
2017-08-20T09:24:46.678Z,59.9
2017-08-20T09:25:46.246Z,59.5
2017-08-20T09:26:45.684Z,60.5
2017-08-20T09:27:44.740Z,60.4
2017-08-20T09:28:44.309Z,61.1
2017-08-20T09:30:42.871Z,62
2017-08-20T09:31:42.315Z,61.4
2017-08-20T09:33:40.535Z,61.4
2017-08-20T09:34:39.986Z,61.6
2017-08-20T09:35:39.315Z,61.2
2017-08-20T09:36:38.762Z,61.2
2017-08-20T09:37:38.329Z,61.7
2017-08-20T09:38:37.390Z,61.1
2017-08-20T09:39:36.959Z,62.1
2017-08-20T09:40:36.135Z,60.9
2017-08-20T09:41:35.701Z,59.1
2017-08-20T09:42:34.772Z,59.3
2017-08-20T09:43:33.834Z,59.3
2017-08-20T09:44:33.397Z,59.1
2017-08-20T09:45:32.731Z,60.6
2017-08-20T09:46:32.294Z,61.4
2017-08-20T09:47:31.625Z,60.1
2017-08-20T09:48:30.949Z,59.8
2017-08-20T09:49:30.128Z,59.6
2017-08-20T09:50:29.698Z,60.5
2017-08-20T09:51:28.761Z,61.6
2017-08-20T09:52:28.439Z,60.6
2017-08-20T09:53:27.634Z,60.6
2017-08-20T09:54:26.816Z,61.2
2017-08-20T09:55:25.996Z,63
2017-08-20T09:56:25.674Z,62.7
2017-08-20T09:57:24.735Z,62.6
2017-08-20T09:58:24.311Z,62.3
2017-08-20T09:59:23.491Z,62.5
2017-08-20T10:00:22.674Z,63.3
2017-08-20T10:01:22.367Z,63.1
2017-08-20T10:02:21.695Z,63.5
2017-08-20T10:03:20.874Z,62.3
2017-08-20T10:04:21.539Z,62.2
2017-08-20T10:05:19.501Z,63.9
2017-08-20T10:06:18.687Z,62.4
2017-08-20T10:08:17.754Z,62.3
2017-08-20T10:09:16.715Z,62.2
2017-08-20T10:10:16.276Z,61.9
2017-08-20T10:11:15.454Z,62.2
2017-08-20T10:12:15.133Z,61.3
2017-08-20T10:13:14.204Z,61.6
2017-08-20T10:14:13.659Z,60.7
2017-08-20T10:15:12.723Z,60.8
2017-08-20T10:16:12.404Z,60.6
2017-08-20T10:17:11.602Z,61
2017-08-20T10:18:11.071Z,60.7
2017-08-20T10:20:09.532Z,61.4
2017-08-20T10:21:08.728Z,60.3
2017-08-20T10:22:08.308Z,60.5
2017-08-20T10:23:07.390Z,59.2
2017-08-20T10:24:06.859Z,59.8
2017-08-20T10:25:06.051Z,60.7
2017-08-20T10:26:05.634Z,59.6
2017-08-20T10:27:04.804Z,60.1
2017-08-20T10:28:04.507Z,60.3
2017-08-20T10:29:03.583Z,59.5
2017-08-20T10:30:03.051Z,60
2017-08-20T10:31:02.249Z,58
2017-08-20T10:32:01.521Z,57.4
2017-08-20T10:33:01.217Z,57.5
2017-08-20T10:34:00.305Z,56.3
2017-08-20T10:34:59.524Z,57.3
2017-08-20T10:35:59.221Z,56.7
2017-08-20T10:36:58.303Z,56.9
2017-08-20T10:37:57.497Z,57.4
2017-08-20T10:38:57.070Z,55.4
2017-08-20T10:39:56.256Z,54.5
2017-08-20T10:41:54.840Z,55
2017-08-20T10:42:54.425Z,54.7
2017-08-20T10:43:53.618Z,53.8
2017-08-20T10:44:53.196Z,55.1
2017-08-20T10:45:52.394Z,53.6
2017-08-20T10:46:51.858Z,54
2017-08-20T10:48:50.307Z,53
2017-08-20T10:49:49.994Z,53.7
2017-08-20T10:50:48.952Z,52.9
2017-08-20T10:51:48.542Z,52.9
2017-08-20T10:52:48.112Z,52.4
2017-08-20T10:53:47.202Z,53.3
2017-08-20T10:54:46.411Z,52.7
2017-08-20T10:55:46.101Z,52.7
2017-08-20T10:56:45.302Z,53.7
2017-08-20T10:57:44.250Z,54.5
2017-08-20T10:59:43.343Z,53.7
2017-08-20T11:00:13.725Z,53.7
2017-08-20T11:01:41.999Z,53.8
2017-08-20T11:02:41.333Z,54
2017-08-20T11:03:40.515Z,52
2017-08-20T11:04:39.983Z,52.2
2017-08-20T11:05:39.554Z,52.5
2017-08-20T11:06:38.637Z,52.8
2017-08-20T11:07:38.094Z,52.5
2017-08-20T11:09:37.061Z,51.4
2017-08-20T11:10:36.402Z,51.1
2017-08-20T11:11:35.594Z,51.8
2017-08-20T11:12:34.795Z,48.6
2017-08-20T11:13:33.994Z,49.9
2017-08-20T11:14:33.578Z,49.7
2017-08-20T11:15:33.152Z,48
2017-08-20T11:16:32.223Z,49
2017-08-20T11:18:31.084Z,48.1
2017-08-20T11:19:30.167Z,48.4
2017-08-20T11:20:29.628Z,47.9
2017-08-20T11:21:28.818Z,47.5
2017-08-20T11:22:28.409Z,48
2017-08-20T11:24:26.991Z,49.1
2017-08-20T11:25:26.441Z,49.8
2017-08-20T11:26:25.644Z,49.6
2017-08-20T11:27:25.101Z,49.1
2017-08-20T11:28:24.555Z,49.3
2017-08-20T11:29:23.739Z,48.8
2017-08-20T11:30:23.453Z,49.5
2017-08-20T11:31:22.646Z,51.7
2017-08-20T11:32:21.601Z,49.8
2017-08-20T11:33:21.563Z,50
2017-08-20T11:34:20.511Z,50.2
2017-08-20T11:35:20.093Z,51.6
2017-08-20T11:36:19.275Z,49.6
2017-08-20T11:37:18.737Z,49.2
2017-08-20T11:38:18.310Z,51.1
2017-08-20T11:39:17.373Z,46.9
2017-08-20T11:40:16.968Z,46.3
2017-08-20T11:41:15.932Z,46.4
2017-08-20T11:42:15.511Z,45.5
2017-08-20T11:43:14.711Z,47.6
2017-08-20T11:44:14.302Z,43.1
2017-08-20T11:46:12.894Z,44.5
2017-08-20T11:47:12.499Z,44.8
2017-08-20T11:48:11.701Z,45.7
2017-08-20T11:49:10.899Z,45.2
2017-08-20T11:50:10.487Z,46.4
2017-08-20T11:51:09.671Z,44.5
2017-08-20T11:52:09.252Z,43.5
2017-08-20T11:53:08.452Z,44.5
2017-08-20T11:54:08.204Z,43.2
2017-08-20T11:55:07.402Z,43.3
2017-08-20T11:57:05.981Z,44
2017-08-20T11:58:05.686Z,44.2
2017-08-20T11:59:04.745Z,44.8
2017-08-20T12:00:04.435Z,44.7
2017-08-20T12:01:03.395Z,46.2
2017-08-20T12:02:03.093Z,44.1
2017-08-20T12:03:02.290Z,45.9
2017-08-20T12:04:01.873Z,44.9
2017-08-20T12:05:00.943Z,45.8
2017-08-20T12:06:00.657Z,46.5
2017-08-20T12:07:00.119Z,45.5
2017-08-20T12:07:59.202Z,44.6
2017-08-20T12:08:58.915Z,45.9
2017-08-20T12:09:57.991Z,45.9
2017-08-20T12:10:57.060Z,45.9
2017-08-20T12:11:56.636Z,48.3
2017-08-20T12:12:56.105Z,51
2017-08-20T12:13:55.691Z,52.8
2017-08-20T12:14:54.762Z,53.7
2017-08-20T12:15:54.227Z,53.3
2017-08-20T12:16:53.917Z,53.9
2017-08-20T12:17:53.111Z,54.4
2017-08-20T12:18:52.306Z,54.4
2017-08-20T12:19:51.885Z,54.4
2017-08-20T12:20:50.966Z,53.4
2017-08-20T12:21:50.660Z,53.9
2017-08-20T12:22:49.747Z,53.4
2017-08-20T12:23:49.324Z,53.8
2017-08-20T12:24:48.792Z,53.8
2017-08-20T12:25:47.856Z,54.4
2017-08-20T12:26:47.556Z,54.7
2017-08-20T12:27:46.758Z,54.8
2017-08-20T12:28:45.958Z,54.9
2017-08-20T12:29:45.440Z,54.8
2017-08-20T12:30:45.024Z,54
2017-08-20T12:31:43.978Z,53.1
2017-08-20T12:32:43.432Z,54
2017-08-20T12:33:42.766Z,53.8
2017-08-20T12:34:42.226Z,53.9
2017-08-20T12:35:41.582Z,53.6
2017-08-20T12:36:41.039Z,53.7
2017-08-20T12:37:40.116Z,53.8
2017-08-20T12:38:39.700Z,54.2
2017-08-20T12:39:38.779Z,53.7
2017-08-20T12:40:38.358Z,53
2017-08-20T12:41:37.936Z,53.3
2017-08-20T12:42:36.890Z,54.6
2017-08-20T12:43:36.577Z,54.3
2017-08-20T12:47:33.946Z,53.7
2017-08-20T12:48:32.890Z,52.4
2017-08-20T12:49:32.347Z,52.8
2017-08-20T12:50:31.809Z,53.1
2017-08-20T12:51:31.263Z,53
2017-08-20T12:52:30.722Z,51.2
2017-08-20T12:53:29.902Z,52.1
2017-08-20T12:54:29.246Z,52.1
2017-08-20T12:55:28.429Z,51.6
2017-08-20T12:56:28.119Z,52
2017-08-20T12:57:27.192Z,51.8
2017-08-20T12:58:26.895Z,52.1
2017-08-20T12:59:25.980Z,52.6
2017-08-20T13:00:25.450Z,52.5
2017-08-20T13:01:25.023Z,53.3
2017-08-20T13:02:24.215Z,51.6
2017-08-20T13:03:23.547Z,52.3
2017-08-20T13:04:22.743Z,53
2017-08-20T13:05:22.191Z,52.3
2017-08-20T13:06:21.772Z,52.8
2017-08-20T13:07:20.966Z,52.6
2017-08-20T13:08:20.031Z,53.1
2017-08-20T13:09:19.609Z,53.6
2017-08-20T13:10:19.171Z,53.3
2017-08-20T13:11:18.371Z,53.5
2017-08-20T13:12:17.557Z,52.8
2017-08-20T13:13:16.630Z,53.3
2017-08-20T13:14:16.229Z,52.9
2017-08-20T13:15:15.686Z,52.6
2017-08-20T13:16:14.864Z,53
2017-08-20T13:17:14.561Z,53
2017-08-20T13:18:13.754Z,53
2017-08-20T13:19:12.941Z,54
2017-08-20T13:20:12.642Z,54
2017-08-20T13:21:11.714Z,53.9
2017-08-20T13:22:10.896Z,54.6
2017-08-20T13:23:10.479Z,54.7
2017-08-20T13:24:09.820Z,55
2017-08-20T13:25:09.166Z,54.5
2017-08-20T13:26:08.727Z,52.7
2017-08-20T13:27:07.802Z,53.6
2017-08-20T13:28:07.380Z,52.5
2017-08-20T13:29:06.585Z,53.7
2017-08-20T13:30:05.714Z,52
2017-08-20T13:31:05.405Z,52.3
2017-08-20T13:32:04.607Z,51.8
2017-08-20T13:33:03.685Z,52.4
2017-08-20T13:34:03.276Z,52.6
2017-08-20T13:35:02.473Z,51.8
2017-08-20T13:36:01.808Z,52.1
2017-08-20T13:37:01.393Z,51.3
2017-08-20T13:38:00.606Z,50.7
2017-08-20T13:39:59.568Z,50.9
2017-08-20T13:40:58.762Z,50.8
2017-08-20T13:41:57.837Z,49.9
2017-08-20T13:42:57.533Z,50.4
2017-08-20T13:43:56.531Z,49.9
2017-08-20T13:44:56.221Z,49.7
2017-08-20T13:45:55.410Z,50.2
2017-08-20T13:46:54.744Z,50.8
2017-08-20T13:47:53.950Z,50.5
2017-08-20T13:48:53.648Z,50.4
2017-08-20T13:49:52.717Z,50.9
2017-08-20T13:50:51.928Z,50.3
2017-08-20T13:51:51.619Z,50.6
2017-08-20T13:52:50.801Z,50.9
2017-08-20T13:53:50.003Z,52.2
2017-08-20T13:54:49.719Z,51.9
2017-08-20T13:56:48.188Z,51.9
2017-08-20T13:57:47.383Z,51.9
2017-08-20T13:58:47.076Z,52.2
2017-08-20T13:59:46.155Z,53.7
2017-08-20T14:00:45.344Z,51.6
2017-08-20T14:01:45.041Z,50.7
2017-08-20T14:02:44.117Z,50.5
2017-08-20T14:03:43.325Z,50.4
2017-08-20T14:04:42.665Z,50.3
2017-08-20T14:05:42.367Z,51
2017-08-20T14:06:41.565Z,50.2
2017-08-20T14:07:41.149Z,49.9
2017-08-20T14:08:40.353Z,49.3
2017-08-20T14:09:39.559Z,50.3
2017-08-20T14:10:09.828Z,50.3
2017-08-20T14:11:38.223Z,49.6
2017-08-20T14:12:37.685Z,48.9
2017-08-20T14:13:36.769Z,48.7
2017-08-20T14:15:35.600Z,48.6
2017-08-20T14:16:35.180Z,50.1
2017-08-20T14:17:34.016Z,49.7
2017-08-20T14:18:33.713Z,48.8
2017-08-20T14:19:32.926Z,47.2
2017-08-20T14:20:32.387Z,47.7
2017-08-20T14:21:31.953Z,46.2
2017-08-20T14:22:31.025Z,46.2
2017-08-20T14:23:30.102Z,46.8